Terminal Aerodrome Forecast
Issued by NWS

Home | Current Version | Previous Version | Text Only | Print | Product List | Glossary On
Versions: 1 2 3 4 5 6 7 8 9 10 11 12
000
FTUS45 KABQ 300539
TAFLVS
TAF
KLVS 300539Z 3006/3106 VRB05KT P6SM FEW090 SCT150
     FM302000 20011G18KT P6SM FEW090 SCT150
     FM310230 19008KT P6SM FEW120 SCT200=

USA.gov is the U.S. government's official web portal to all federal, state and local government web resources and services.